UUDD/DME METAR and TAF weather

Enter ICAO airport designator
Station Type Date Time Source
UUDD METAR 2019/08/26 07:00 UTC NOAA

UUDD 260700Z 24002MPS 150V300 9999 FEW033 17/09 Q1030 R88/CLRD70 NOSIG


Station Type Date Time Source
UUDD Decoded METAR 2019/08/26 07:00 UTC NOAA

Station name not available
Aug 26, 2019 - 03:00 AM EDT / 2019.08.26 0700 UTC
Wind: from the WSW (240 degrees) at 4 MPH (4 KT) (direction variable):0
Visibility: greater than 7 mile(s):0
Sky conditions: mostly clear
Temperature: 62 F (17 C)
Dew Point: 48 F (9 C)
Relative Humidity: 59%
Pressure (altimeter): 30.42 in. Hg (1030 hPa)
ob: UUDD 260700Z 24002MPS 150V300 9999 FEW033 17/09 Q1030 R88/CLRD70 NOSIG
cycle: 7

Station Type Date Time Source
UUDD TAF 2019/08/26 06:21 UTC NOAA

TAF UUDD 260459Z 2606/2712 25003G08MPS 9999 SCT030 TX20/2612Z TN11/2703Z
TEMPO 2621/2709 -SHRA FEW006 SCT015CB
BECMG 2706/2708 34007MPS

Example: see airport list